• Join FlightAware (Why Join?)
  • Login
  • US Flag 
12:50PM EDT


 

Airport Tracker/Info


-or-


 

Live Flight TrackerFlight Track Log ✈ N421VA ✈ 09-Jun-2013 ✈ KHXD - KPMH

Flight Track Log - Related Links

Times and Time Zones

All times are in EDT time to prevent confusion due to time zone crossing. See the N421VA flight status page for this flight to view local times or setup timezone preferences in your user account.

Time Position Orientation Groundspeed Altitude Reporting Facility
EDT Latitude Longitude Course Direction KTS MPH feet Rate Location/Type
03:49PM 32.2714 -80.6197 23° Northeast 178 205 3,200  Level Jacksonville Center
03:50PM 32.3067 -80.6042 20° North 159 183 4,000 900 Climbing Jacksonville Center
03:51PM 32.3522 -80.5883 16° North 159 183 5,000 900 Climbing Jacksonville Center
03:52PM 32.3917 -80.5678 24° Northeast 152 175 5,800 840 Climbing Jacksonville Center
03:53PM 32.4911 -80.7737 342° North  Level FlightAware Approximate
03:53PM 32.4289 -80.5519 20° North 147 169 6,700  Level Jacksonville Center
03:54PM 32.5466 -80.7893 350° North  Level FlightAware Approximate
03:54PM 32.4722 -80.5311 22° Northeast 152 175 7,800  Level Jacksonville Center
03:55PM 32.5094 -80.5128 23° Northeast 152 175 8,600 900 Climbing Jacksonville Center
03:56PM 32.5550 -80.4894 23° Northeast 152 175 9,600 900 Climbing Jacksonville Center
03:57PM 32.5942 -80.4664 26° Northeast 152 175 10,500 900 Climbing Jacksonville Center
03:58PM 32.6378 -80.4453 22° Northeast 152 175 11,400 720 Climbing Jacksonville Center
03:59PM 32.6811 -80.4219 24° Northeast 159 183 12,000 780 Climbing Jacksonville Center
04:00PM 32.7264 -80.3986 23° Northeast 166 191 13,000 900 Climbing Jacksonville Center
04:01PM 32.7700 -80.3775 22° Northeast 171 197 13,900 900 Climbing Jacksonville Center
04:02PM 32.8197 -80.3589 17° North 171 197 14,800 840 Climbing Jacksonville Center
04:03PM 32.8650 -80.3378 21° North 171 197 15,600 840 Climbing Jacksonville Center
04:04PM 32.9147 -80.3142 22° Northeast 171 197 16,500 840 Climbing Jacksonville Center
04:05PM 32.9603 -80.2931 21° North 178 205 17,300 780 Climbing Jacksonville Center
04:06PM 33.0017 -80.2719 23° Northeast 176 203 18,100 780 Climbing Jacksonville Center
04:07PM 33.0572 -80.2406 25° Northeast 182 209 18,900 780 Climbing Jacksonville Center
04:08PM 33.1028 -80.2169 23° Northeast 182 209 19,700 720 Climbing Jacksonville Center
04:09PM 33.1481 -80.1933 24° Northeast 182 209 20,400 660 Climbing Jacksonville Center
04:10PM 33.1956 -80.1694 23° Northeast 182 209 21,100 300 Climbing Jacksonville Center
04:11PM 33.2514 -80.1456 20° North 194 223 21,000 -60 Descending Jacksonville Center
04:12PM 33.3072 -80.1164 24° Northeast 205 236 21,000  Level Jacksonville Center
04:13PM 33.3647 -80.0847 25° Northeast 211 243 21,000  Level Jacksonville Center
04:14PM 33.4247 -80.0556 22° Northeast 211 243 21,000  Level Jacksonville Center
04:15PM 33.4761 -80.0214 29° Northeast 211 243 21,100  Climbing Jacksonville Center
04:16PM 33.5317 -79.9922 24° Northeast 211 243 21,000  Descending Jacksonville Center
04:17PM 33.5917 -79.9653 21° North 216 249 21,100  Climbing Jacksonville Center
04:18PM 33.6514 -79.9358 22° Northeast 222 255 21,100 -60 Level Jacksonville Center
04:19PM 33.7139 -79.9239 North 227 261 21,000 -60 Descending Jacksonville Center
04:20PM 33.7686 -79.9494 339° North 210 242 21,000  Level Jacksonville Center
04:21PM 33.8194 -79.9828 331° Northwest 203 234 21,000  Level Jacksonville Center
04:22PM 33.8722 -80.0086 338° Northwest 208 239 21,000 -60 Level Jacksonville Center
04:23PM 33.9272 -80.0369 337° Northwest 208 239 20,900  Descending Jacksonville Center
04:24PM 33.9800 -80.0703 332° Northwest 208 239 21,000 60 Climbing Jacksonville Center
04:25PM 34.0308 -80.0986 335° Northwest 208 239 21,100  Climbing Jacksonville Center
04:26PM 34.0836 -80.1269 336° Northwest 208 239 21,100 -60 Level Jacksonville Center
04:27PM 34.1386 -80.1603 333° Northwest 208 239 21,000 -60 Descending Jacksonville Center
04:28PM 34.1933 -80.1836 341° North 208 239 21,000  Level Jacksonville Center
04:30PM 34.2864 -80.2375 334° Northwest 199 229 21,100  Climbing Atlanta Center
04:31PM 34.3372 -80.2653 336° Northwest 199 229 21,000 -60 Descending Atlanta Center
04:32PM 34.3864 -80.3033 327° Northwest 204 235 21,000  Level Atlanta Center
04:33PM 34.4458 -80.3286 341° North 204 235 21,000  Level Atlanta Center
04:34PM 34.4967 -80.3617 332° Northwest 204 235 21,100  Climbing Atlanta Center
04:35PM 34.5458 -80.3972 329° Northwest 204 235 21,100 -60 Level Atlanta Center
04:36PM 34.6028 -80.4200 342° North 204 235 21,000 -60 Descending Atlanta Center
04:37PM 34.6600 -80.4503 336° Northwest 219 252 21,000  Level Atlanta Center
04:38PM 34.7214 -80.4731 343° North 219 252 21,100  Climbing Atlanta Center
04:39PM 34.7744 -80.5036 335° Northwest 213 245 21,000 -60 Descending Atlanta Center
04:40PM 34.8314 -80.5317 338° Northwest 213 245 21,000  Level Atlanta Center
04:41PM 34.8867 -80.5647 334° Northwest 213 245 21,000  Level Atlanta Center
04:42PM 34.9333 -80.5956 332° Northwest 220 253 21,100  Climbing Atlanta Center
04:43PM 34.9906 -80.6236 338° Northwest 220 253 21,100  Level Atlanta Center
04:44PM 35.0458 -80.6569 334° Northwest 220 253 21,100 -60 Level Atlanta Center
04:45PM 35.1031 -80.6928 333° Northwest 228 262 21,000  Descending Atlanta Center
04:46PM 35.1603 -80.7208 338° Northwest 222 255 21,100  Climbing Atlanta Center
04:47PM 35.2172 -80.7467 340° North 222 255 21,000 -60 Descending Atlanta Center
04:48PM 35.2822 -80.7592 351° North 222 255 21,000 -60 Level Atlanta Center
04:49PM 35.3511 -80.7642 357° North 222 255 20,900  Descending Atlanta Center
04:50PM 35.4158 -80.7589 North 227 261 21,100  Climbing Atlanta Center
04:51PM 35.4828 -80.7667 355° North 234 269 20,900 -120 Descending Atlanta Center
04:52PM 35.5475 -80.7692 358° North 234 269 20,900  Level Atlanta Center
04:53PM 35.6100 -80.7717 358° North 234 269 20,900  Level Atlanta Center
04:54PM 35.6728 -80.7794 354° North 234 269 20,900  Level Atlanta Center
04:55PM 35.7356 -80.7819 358° North 229 264 20,900  Level Atlanta Center
04:56PM 35.8003 -80.7844 358° North 229 264 20,900  Level Atlanta Center
04:57PM 35.8650 -80.7844 360° North 235 270 20,900  Level Atlanta Center
04:58PM 35.9297 -80.7869 358° North 235 270 20,900  Level Atlanta Center
04:59PM 35.9922 -80.7872 360° North 235 270 20,900  Level Atlanta Center
05:00PM 36.0550 -80.7897 358° North 235 270 20,900  Level Atlanta Center
05:01PM 36.1175 -80.7897 360° North 230 265 20,900  Level Atlanta Center
05:02PM 36.1739 -80.7900 360° North 230 265 20,900  Level Atlanta Center
05:03PM 36.2383 -80.7900 360° North 230 265 20,900  Level Atlanta Center
05:04PM 36.2989 -80.7928 358° North 230 265 20,900  Level Atlanta Center
05:05PM 36.3558 -80.8086 347° North 217 250 21,000  Climbing Atlanta Center
05:06PM 36.3944 -80.8533 317° Northwest 195 224 20,900 -180 Descending Atlanta Center
05:07PM 36.4394 -80.8956 323° Northwest 196 226 20,700 -240 Descending Atlanta Center
05:08PM 36.4861 -80.9350 326° Northwest 204 235 20,500 -360 Descending Atlanta Center
05:09PM 36.5456 -80.9714 334° Northwest 209 241 20,000 -300 Descending Atlanta Center
05:10PM 36.6025 -80.9978 340° North 214 246 20,000  Level Atlanta Center
05:11PM 36.6492 -81.0322 329° Northwest 209 241 20,000  Level Atlanta Center
05:12PM 36.6939 -81.0744 323° Northwest 202 232 20,000  Level Atlanta Center
05:13PM 36.7408 -81.1167 324° Northwest 196 226 20,000  Level Atlanta Center
05:14PM 36.7794 -81.1594 318° Northwest 196 226 20,000  Level Atlanta Center
05:15PM 36.8242 -81.1967 326° Northwest 196 226 20,000  Level Atlanta Center
05:16PM 36.8689 -81.2367 324° Northwest 202 232 20,000  Level Atlanta Center
05:17PM 36.9156 -81.2792 324° Northwest 207 238 20,000  Level Atlanta Center
05:19PM 37.0181 -81.3500 331° Northwest 212 244 20,000  Level Indianapolis Center
05:20PM 37.0731 -81.3897 330° Northwest 209 241 20,000  Level Indianapolis Center
05:21PM 37.1233 -81.4278 329° Northwest 210 242 20,000  Level Indianapolis Center
05:22PM 37.1703 -81.4686 325° Northwest 206 237 20,000  Level Indianapolis Center
05:23PM 37.2178 -81.5117 324° Northwest 210 242 20,000  Level Indianapolis Center
05:24PM 37.2686 -81.5500 329° Northwest 213 245 20,000  Level Indianapolis Center
05:25PM 37.3306 -81.5906 333° Northwest 213 245 20,000  Level Indianapolis Center
05:26PM 37.3814 -81.6319 327° Northwest 215 247 20,000 -360 Level Indianapolis Center
05:27PM 37.4311 -81.6778 324° Northwest 221 254 19,300 -660 Descending Indianapolis Center
05:28PM 37.4889 -81.7253 327° Northwest 243 280 18,700 -660 Descending Indianapolis Center
05:29PM 37.5472 -81.7636 332° Northwest 236 272 18,000 -540 Descending Indianapolis Center
05:30PM 37.6019 -81.8061 328° Northwest 231 266 17,700 -480 Descending Indianapolis Center
05:31PM 37.6622 -81.8614 324° Northwest 228 262 17,100 -300 Descending Indianapolis Center
05:32PM 37.7119 -81.9053 325° Northwest 221 254 17,100  Level Indianapolis Center
05:33PM 37.7608 -81.9447 327° Northwest 211 243 17,100  Level Indianapolis Center
05:34PM 37.8089 -81.9869 325° Northwest 210 242 17,100 -60 Level Indianapolis Center
05:35PM 37.8639 -82.0328 327° Northwest 214 246 17,000 -600 Descending Indianapolis Center
05:36PM 37.9158 -82.0775 326° Northwest 223 257 15,900 -960 Descending Indianapolis Center
05:37PM 37.9711 -82.1267 325° Northwest 240 276 15,100 -900 Descending Indianapolis Center
05:38PM 38.0322 -82.1769 327° Northwest 245 282 14,100 -960 Descending Indianapolis Center
05:39PM 38.0886 -82.2219 328° Northwest 241 277 13,200 -900 Descending Indianapolis Center
05:40PM 38.1425 -82.2650 328° Northwest 242 278 12,300 -900 Descending Indianapolis Center
05:41PM 38.1969 -82.3072 329° Northwest 235 270 11,400 -960 Descending Indianapolis Center
05:42PM 38.2769 -82.3097 359° North 234 269 10,400 -960 Descending Indianapolis Center
05:43PM 38.3428 -82.3167 355° North 235 270 9,500 -840 Descending Indianapolis Center
05:45PM 38.4069 -82.3203 357° North 231 266 8,700 -840 Descending Indianapolis Center
05:46PM 38.4697 -82.3236 358° North 224 258 7,800 -900 Descending Indianapolis Center
05:47PM 38.5306 -82.3286 356° North 219 252 6,900 -1,020 Descending Indianapolis Center
05:48PM 38.5756 -82.3719 323° Northwest 212 244 5,800 -1,020 Descending Indianapolis Center
05:49PM 38.6039 -82.4383 299° West 211 243 4,800 -420 Descending Indianapolis Center
05:50PM 38.6403 -82.5044 305° West 192 221 5,000 -300 Climbing Indianapolis Center
05:51PM 38.6717 -82.5628 305° West 193 222 4,200 -780 Descending Indianapolis Center
05:52PM 38.7050 -82.6228 305° West 203 234 3,500 -540 Descending Indianapolis Center
05:53PM 38.7506 -82.6783 316° Northwest 206 237 3,200 -300 Descending Indianapolis Center
05:55PM 38.8069 -82.7838 304° West  Level FlightAware Approximate
06:02PM 38.8333 -82.8333 308° West  Level FlightAware Approximate
06:03PM 38.8405 -82.8473 308° West  Level Estimated